Time;durP1;ratioP1;P1;durP2;ratioP2;P2;SDS_P1;SDS_P2;PMS_P1;PMS_P2;Temp;Humidity;BMP_temperature;BMP_pressure;BME280_temperature;BME280_humidity;BME280_pressure;Samples;Min_cycle;Max_cycle;Signal;HPM_P1;HPM_P2
2021/07/31 00:01:59;;;;;;;3.95;1.63;;;18.30;72.80;;;;;;6212933;23;20348;-76
2021/07/31 00:04:26;;;;;;;5.38;2.42;;;18.40;71.80;;;;;;6221137;23;20016;-76
2021/07/31 00:06:54;;;;;;;5.70;2.30;;;18.30;72.20;;;;;;6220142;23;20024;-76
2021/07/31 00:09:21;;;;;;;3.72;1.60;;;18.20;72.50;;;;;;6217734;23;20024;-76
2021/07/31 00:11:48;;;;;;;3.63;1.63;;;18.10;72.70;;;;;;6219338;23;20028;-76
2021/07/31 00:14:18;;;;;;;5.15;1.88;;;18.10;73.40;;;;;;6220502;23;20025;-76
2021/07/31 00:16:46;;;;;;;5.22;1.70;;;18.00;73.80;;;;;;6219888;23;20020;-76
2021/07/31 00:19:14;;;;;;;4.47;1.77;;;17.90;74.20;;;;;;6221776;23;20013;-76
2021/07/31 00:21:41;;;;;;;3.45;1.90;;;17.80;74.40;;;;;;6221449;23;20016;-76
2021/07/31 00:24:08;;;;;;;7.30;1.88;;;17.70;74.30;;;;;;6221088;23;20146;-76
2021/07/31 00:26:35;;;;;;;4.65;1.92;;;17.80;73.70;;;;;;6218731;23;20387;-76
2021/07/31 00:29:08;;;;;;;6.63;2.00;;;17.80;74.00;;;;;;6217701;23;20031;-76
2021/07/31 00:31:37;;;;;;;5.22;1.70;;;17.70;74.20;;;;;;6219487;23;20032;-76
2021/07/31 00:34:04;;;;;;;5.45;1.98;;;17.60;74.10;;;;;;6220372;23;20021;-76
2021/07/31 00:36:31;;;;;;;7.57;1.90;;;17.50;74.30;;;;;;6219579;23;20016;-77
2021/07/31 00:38:59;;;;;;;7.90;2.00;;;17.40;74.60;;;;;;6221850;23;20052;-76
2021/07/31 00:41:26;;;;;;;2.85;1.23;;;17.40;74.70;;;;;;6220859;23;20072;-77
2021/07/31 00:43:53;;;;;;;6.20;1.92;;;17.30;74.90;;;;;;6221427;23;20321;-76
2021/07/31 00:46:21;;;;;;;5.05;1.50;;;17.30;75.20;;;;;;6220687;23;20034;-76
2021/07/31 00:48:51;;;;;;;5.82;1.48;;;17.20;75.70;;;;;;6220415;23;20008;-76
2021/07/31 00:51:19;;;;;;;4.93;1.90;;;17.10;75.50;;;;;;6222744;23;20016;-75
2021/07/31 00:53:49;;;;;;;4.65;1.95;;;17.10;75.70;;;;;;6219021;23;20375;-76
2021/07/31 00:56:20;;;;;;;5.32;1.45;;;17.20;76.50;;;;;;6218525;23;20368;-76
2021/07/31 00:58:48;;;;;;;6.10;1.67;;;17.20;75.20;;;;;;6220397;23;20026;-75
2021/07/31 01:01:17;;;;;;;3.97;1.70;;;17.10;75.50;;;;;;6212965;23;20039;-75
2021/07/31 01:03:46;;;;;;;3.55;1.58;;;17.00;75.80;;;;;;6217641;23;20253;-76
2021/07/31 01:06:15;;;;;;;4.50;1.65;;;16.90;76.00;;;;;;6220391;23;20346;-75
2021/07/31 01:08:42;;;;;;;4.13;1.30;;;16.80;75.50;;;;;;6220738;23;20343;-76
2021/07/31 01:11:15;;;;;;;4.50;1.50;;;16.70;75.70;;;;;;6218940;23;20044;-76
2021/07/31 01:13:44;;;;;;;3.70;1.45;;;16.70;76.10;;;;;;6216661;23;20203;-76
2021/07/31 01:16:11;;;;;;;3.83;1.40;;;16.60;76.40;;;;;;6216894;23;20020;-76
2021/07/31 01:18:41;;;;;;;3.13;1.02;;;16.60;76.40;;;;;;6218389;23;20019;-76
2021/07/31 01:21:33;;;;;;;2.80;1.45;;;16.60;76.30;;;;;;6218973;23;20023;-75
2021/07/31 01:24:01;;;;;;;5.85;1.50;;;16.60;76.80;;;;;;6217649;23;20074;-75
2021/07/31 01:26:28;;;;;;;2.33;1.17;;;16.40;77.00;;;;;;6218897;23;20036;-75
2021/07/31 01:28:56;;;;;;;4.45;1.27;;;16.40;76.30;;;;;;6217013;23;20089;-76
2021/07/31 01:31:23;;;;;;;3.13;1.50;;;16.40;76.90;;;;;;6217408;23;20067;-75
2021/07/31 01:33:50;;;;;;;4.22;1.20;;;16.20;77.00;;;;;;6218099;23;20026;-76
2021/07/31 01:36:18;;;;;;;4.30;1.40;;;16.30;76.90;;;;;;6217625;23;20383;-76
2021/07/31 01:38:47;;;;;;;3.22;1.15;;;16.20;77.40;;;;;;6218702;23;20068;-76
2021/07/31 01:41:14;;;;;;;6.03;1.58;;;16.10;78.10;;;;;;6217955;23;20309;-75
2021/07/31 01:43:41;;;;;;;5.35;1.50;;;16.00;78.20;;;;;;6219648;23;20024;-75
2021/07/31 01:46:09;;;;;;;3.95;1.58;;;16.00;78.40;;;;;;6217544;23;20252;-75
2021/07/31 01:48:36;;;;;;;2.83;1.30;;;16.00;78.80;;;;;;6218526;23;20016;-75
2021/07/31 01:51:05;;;;;;;5.22;1.30;;;15.90;78.60;;;;;;6220704;23;20103;-75
2021/07/31 01:53:33;;;;;;;2.25;1.02;;;15.90;78.90;;;;;;6225384;23;20142;-75
2021/07/31 01:56:02;;;;;;;2.95;1.30;;;15.80;79.20;;;;;;6223672;23;20043;-75
2021/07/31 01:58:35;;;;;;;5.57;1.42;;;15.70;79.20;;;;;;6224406;23;20096;-76
2021/07/31 02:01:04;;;;;;;2.53;1.20;;;15.70;79.40;;;;;;6217274;23;20075;-76
2021/07/31 02:03:31;;;;;;;2.45;1.20;;;15.70;79.50;;;;;;6222588;23;20016;-76
2021/07/31 02:06:17;;;;;;;3.80;1.05;;;15.70;79.70;;;;;;6224679;23;20039;-76
2021/07/31 02:08:44;;;;;;;3.42;1.33;;;15.60;79.70;;;;;;6222879;23;20017;-76
2021/07/31 02:11:13;;;;;;;4.03;1.45;;;15.60;80.10;;;;;;6218706;23;20070;-76
2021/07/31 02:13:41;;;;;;;4.95;1.77;;;15.60;80.20;;;;;;6220928;23;20240;-76
2021/07/31 02:16:12;;;;;;;4.72;1.98;;;15.60;80.30;;;;;;6221293;23;20219;-75
2021/07/31 02:18:39;;;;;;;3.80;1.67;;;15.50;80.40;;;;;;6222989;23;20020;-76
2021/07/31 02:21:07;;;;;;;3.22;1.30;;;15.50;80.60;;;;;;6222633;23;20325;-75
2021/07/31 02:23:55;;;;;;;4.65;1.60;;;15.40;80.80;;;;;;6220875;23;20039;-76
2021/07/31 02:26:42;;;;;;;5.43;1.60;;;15.40;80.50;;;;;;6222073;23;20330;-76
2021/07/31 02:29:16;;;;;;;3.33;1.52;;;15.30;80.70;;;;;;6219490;23;20028;-76
2021/07/31 02:31:44;;;;;;;3.60;1.73;;;15.40;80.80;;;;;;6219210;23;20028;-76
2021/07/31 02:34:11;;;;;;;6.32;1.70;;;15.30;80.90;;;;;;6221857;23;20020;-76
2021/07/31 02:36:43;;;;;;;6.03;1.70;;;15.30;81.00;;;;;;6222377;23;20051;-76
2021/07/31 02:39:19;;;;;;;2.45;1.00;;;15.20;81.20;;;;;;6221285;23;20036;-76
2021/07/31 02:41:49;;;;;;;3.58;1.48;;;15.20;81.40;;;;;;6217964;23;20024;-75
2021/07/31 02:44:16;;;;;;;8.30;1.70;;;15.10;81.30;;;;;;6220563;23;20051;-76
2021/07/31 02:46:44;;;;;;;6.00;1.30;;;15.10;81.10;;;;;;6220796;23;20055;-76
2021/07/31 02:49:12;;;;;;;3.10;1.17;;;15.10;81.10;;;;;;6220249;23;20025;-75
2021/07/31 02:51:40;;;;;;;4.50;0.98;;;15.00;81.30;;;;;;6223292;23;20025;-76
2021/07/31 02:54:16;;;;;;;4.00;1.02;;;15.00;81.30;;;;;;6218399;23;20044;-76
2021/07/31 02:56:44;;;;;;;4.60;1.15;;;14.90;81.30;;;;;;6213440;23;20263;-75
2021/07/31 02:59:17;;;;;;;3.10;1.10;;;14.90;81.20;;;;;;6217595;23;20215;-76
2021/07/31 03:01:44;;;;;;;11.18;2.13;;;14.90;81.40;;;;;;6213314;23;20029;-75
2021/07/31 03:04:12;;;;;;;2.22;0.90;;;14.90;81.50;;;;;;6218239;23;20020;-76
2021/07/31 03:06:42;;;;;;;2.72;1.00;;;14.90;81.50;;;;;;6217784;23;20012;-76
2021/07/31 03:09:12;;;;;;;3.05;1.05;;;14.80;81.50;;;;;;6215169;23;20020;-76
2021/07/31 03:11:39;;;;;;;2.00;1.00;;;14.80;81.60;;;;;;6220688;23;20017;-76
2021/07/31 03:14:07;;;;;;;3.40;1.20;;;14.70;81.80;;;;;;6217631;23;20058;-76
2021/07/31 03:16:40;;;;;;;4.43;1.13;;;14.70;81.90;;;;;;6218055;23;20032;-76
2021/07/31 03:19:07;;;;;;;2.30;1.13;;;14.60;82.10;;;;;;6220368;23;20013;-76
2021/07/31 03:21:36;;;;;;;3.42;1.17;;;14.60;82.50;;;;;;6218511;23;20084;-76
2021/07/31 03:24:14;;;;;;;2.40;1.10;;;14.50;82.70;;;;;;6218160;23;20021;-76
2021/07/31 03:26:41;;;;;;;2.63;1.13;;;14.50;82.50;;;;;;6218923;23;20051;-76
2021/07/31 03:29:13;;;;;;;3.05;1.25;;;14.50;82.60;;;;;;6218394;23;20175;-76
2021/07/31 03:31:43;;;;;;;3.08;1.15;;;14.50;82.40;;;;;;6218070;23;20249;-76
2021/07/31 03:34:10;;;;;;;6.05;1.13;;;14.40;82.90;;;;;;6219054;23;20020;-76
2021/07/31 03:36:38;;;;;;;2.80;0.95;;;14.40;83.00;;;;;;6221608;23;20070;-76
2021/07/31 03:39:06;;;;;;;3.70;1.25;;;14.40;82.90;;;;;;6216383;23;20103;-76
2021/07/31 03:41:37;;;;;;;3.25;1.30;;;14.40;82.90;;;;;;6215528;23;20032;-76
2021/07/31 03:44:07;;;;;;;3.28;1.13;;;14.40;83.00;;;;;;6221338;23;20024;-76
2021/07/31 03:46:45;;;;;;;6.18;1.95;;;14.40;82.90;;;;;;6220979;23;20025;-76
2021/07/31 03:49:14;;;;;;;4.40;1.40;;;14.40;83.00;;;;;;6220295;23;20255;-76
2021/07/31 03:51:45;;;;;;;3.80;1.33;;;14.40;82.60;;;;;;6219684;23;20235;-76
2021/07/31 03:54:13;;;;;;;3.35;1.08;;;14.40;82.40;;;;;;6222381;23;20024;-76
2021/07/31 03:56:41;;;;;;;2.20;1.05;;;14.50;82.40;;;;;;6219791;23;20029;-76
2021/07/31 03:59:17;;;;;;;6.60;1.23;;;14.60;82.00;;;;;;6220566;23;20024;-76
2021/07/31 04:01:46;;;;;;;4.82;1.40;;;14.60;81.60;;;;;;6215008;23;20028;-76
2021/07/31 04:04:16;;;;;;;2.38;1.08;;;14.70;80.90;;;;;;6218372;23;20088;-76
2021/07/31 04:06:43;;;;;;;4.22;1.15;;;14.70;81.00;;;;;;6211235;23;20224;-75
2021/07/31 04:09:29;;;;;;;3.60;1.23;;;14.80;81.30;;;;;;6212165;23;20043;-76
2021/07/31 04:12:32;;;;;;;1.52;0.77;;;14.80;81.10;;;;;;6152322;23;20031;-76
2021/07/31 04:15:25;;;;;;;7.65;1.30;;;14.80;80.90;;;;;;6213622;23;20043;-76
2021/07/31 04:17:55;;;;;;;2.30;1.27;;;14.80;80.60;;;;;;6213774;23;20039;-76
2021/07/31 04:20:22;;;;;;;3.05;1.50;;;14.90;80.80;;;;;;6218686;23;20014;-76
2021/07/31 04:22:52;;;;;;;2.85;1.33;;;14.90;81.60;;;;;;6216442;23;20211;-76
2021/07/31 04:25:24;;;;;;;3.05;1.13;;;15.00;80.40;;;;;;6217668;23;20094;-76
2021/07/31 04:27:51;;;;;;;3.53;1.20;;;15.00;80.50;;;;;;6218424;23;20025;-76
2021/07/31 04:30:18;;;;;;;3.78;1.88;;;15.00;80.50;;;;;;6216385;23;20051;-76
2021/07/31 04:32:46;;;;;;;3.08;1.52;;;15.00;79.90;;;;;;6216360;23;20025;-76
2021/07/31 04:35:14;;;;;;;3.40;1.10;;;15.10;80.70;;;;;;6220027;23;20283;-76
2021/07/31 04:37:42;;;;;;;3.67;0.98;;;15.20;78.50;;;;;;6219230;23;20028;-76
2021/07/31 04:40:10;;;;;;;8.73;1.90;;;15.40;78.10;;;;;;6218716;23;20088;-76
2021/07/31 04:42:38;;;;;;;3.33;1.00;;;15.40;77.50;;;;;;6218896;23;20021;-76
2021/07/31 04:45:06;;;;;;;3.03;1.17;;;15.60;77.20;;;;;;6218631;23;20029;-76
2021/07/31 04:47:37;;;;;;;4.97;1.25;;;15.70;76.60;;;;;;6218166;23;20079;-76
2021/07/31 04:50:06;;;;;;;2.92;1.08;;;15.60;76.90;;;;;;6218722;23;20016;-76
2021/07/31 04:52:35;;;;;;;5.70;1.13;;;15.60;76.50;;;;;;6217777;23;20048;-76
2021/07/31 04:55:03;;;;;;;4.23;1.30;;;15.70;78.70;;;;;;6219605;23;20080;-76
2021/07/31 04:57:30;;;;;;;8.55;1.10;;;15.70;76.40;;;;;;6214175;23;20248;-75
2021/07/31 04:59:57;;;;;;;5.25;1.35;;;15.80;76.60;;;;;;6219442;23;20025;-76
2021/07/31 05:02:24;;;;;;;4.25;1.42;;;15.80;76.30;;;;;;6214241;23;20032;-76
2021/07/31 05:04:52;;;;;;;2.50;1.05;;;15.80;75.40;;;;;;6220791;23;20054;-75
2021/07/31 05:07:19;;;;;;;2.80;0.90;;;15.80;75.30;;;;;;6218834;23;20023;-75
2021/07/31 05:09:48;;;;;;;7.13;0.70;;;15.80;75.50;;;;;;6220635;23;20031;-76
2021/07/31 05:12:15;;;;;;;6.57;1.35;;;15.90;75.20;;;;;;6219034;23;20024;-76
2021/07/31 05:14:42;;;;;;;6.05;1.52;;;15.90;75.10;;;;;;6220729;23;20070;-75
2021/07/31 05:17:09;;;;;;;5.47;1.60;;;15.90;75.30;;;;;;6219784;23;20044;-76
2021/07/31 05:19:37;;;;;;;2.25;0.77;;;16.00;74.90;;;;;;6220335;23;20376;-76
2021/07/31 05:22:06;;;;;;;4.30;0.90;;;16.00;75.00;;;;;;6220573;23;20040;-76
2021/07/31 05:24:36;;;;;;;2.65;1.00;;;16.00;74.90;;;;;;6221829;23;20024;-76
2021/07/31 05:27:11;;;;;;;10.15;1.55;;;16.10;74.70;;;;;;6222458;23;20024;-75
2021/07/31 05:29:38;;;;;;;5.30;1.20;;;16.20;74.30;;;;;;6222225;23;20305;-76
2021/07/31 05:32:06;;;;;;;4.45;1.20;;;16.30;74.30;;;;;;6222258;23;20015;-76
2021/07/31 05:34:38;;;;;;;2.05;0.57;;;16.40;73.50;;;;;;6222892;23;20031;-75
2021/07/31 05:37:05;;;;;;;2.38;0.85;;;16.50;73.00;;;;;;6220287;23;20035;-75
2021/07/31 05:39:33;;;;;;;2.40;0.80;;;16.60;72.70;;;;;;6220487;23;20016;-76
2021/07/31 05:42:02;;;;;;;6.97;0.80;;;16.60;71.80;;;;;;6219132;23;20079;-75
2021/07/31 05:44:32;;;;;;;5.53;1.10;;;16.70;71.00;;;;;;6215847;23;20024;-75
2021/07/31 05:46:59;;;;;;;5.00;1.10;;;16.80;70.70;;;;;;6216213;23;20017;-75
2021/07/31 05:49:30;;;;;;;6.95;1.10;;;16.90;70.20;;;;;;6219795;23;20304;-76
2021/07/31 05:51:58;;;;;;;1.75;0.80;;;17.00;69.70;;;;;;6216197;23;20091;-75
2021/07/31 05:54:25;;;;;;;4.35;0.75;;;17.00;69.70;;;;;;6214597;23;20016;-75
2021/07/31 05:56:52;;;;;;;2.75;0.80;;;17.00;69.70;;;;;;6216426;23;20354;-75
2021/07/31 05:59:20;;;;;;;3.25;1.02;;;17.10;69.30;;;;;;6212557;23;20016;-76
2021/07/31 06:01:48;;;;;;;10.20;1.60;;;17.10;69.30;;;;;;6213905;23;20289;-76
2021/07/31 06:04:16;;;;;;;3.50;0.70;;;17.20;68.70;;;;;;6214144;23;20025;-76
2021/07/31 06:06:43;;;;;;;3.63;0.70;;;17.30;68.50;;;;;;6216423;23;20046;-76
2021/07/31 06:09:10;;;;;;;2.00;0.80;;;17.30;68.10;;;;;;6214497;23;20103;-75
2021/07/31 06:11:39;;;;;;;2.10;0.80;;;17.40;67.60;;;;;;6213862;23;20029;-76
2021/07/31 06:14:06;;;;;;;3.30;0.90;;;17.50;68.00;;;;;;6213634;23;20390;-75
2021/07/31 06:16:33;;;;;;;9.07;1.15;;;17.40;68.10;;;;;;6215262;23;20021;-75
2021/07/31 06:19:02;;;;;;;1.60;0.77;;;17.40;68.00;;;;;;6214967;23;20032;-75
2021/07/31 06:21:30;;;;;;;4.05;0.82;;;17.60;68.10;;;;;;6214947;23;20042;-76
2021/07/31 06:23:57;;;;;;;1.75;0.82;;;17.60;67.80;;;;;;6211074;23;20048;-75
2021/07/31 06:26:24;;;;;;;3.72;0.90;;;17.70;67.50;;;;;;6213272;23;20008;-76
2021/07/31 06:28:51;;;;;;;4.82;0.70;;;17.70;66.50;;;;;;6210237;23;20352;-75
2021/07/31 06:31:19;;;;;;;2.83;0.65;;;17.70;66.90;;;;;;6215686;23;20064;-75
2021/07/31 06:33:46;;;;;;;2.25;0.70;;;17.80;65.60;;;;;;6211605;23;20377;-76
2021/07/31 06:36:19;;;;;;;2.42;0.68;;;17.80;66.10;;;;;;6211346;23;20287;-76
2021/07/31 06:38:46;;;;;;;4.47;0.85;;;17.90;66.10;;;;;;6211842;23;20103;-76
2021/07/31 06:41:13;;;;;;;5.82;0.77;;;18.00;65.90;;;;;;6211278;23;20270;-75
2021/07/31 06:43:40;;;;;;;4.13;0.93;;;18.00;65.90;;;;;;6241376;23;20313;-75
2021/07/31 06:46:12;;;;;;;5.60;0.88;;;18.10;65.50;;;;;;6215433;23;20266;-73
2021/07/31 06:48:39;;;;;;;5.30;0.80;;;18.00;65.60;;;;;;6214264;23;20024;-75
2021/07/31 06:51:07;;;;;;;2.30;0.90;;;18.10;65.50;;;;;;6214790;23;20080;-76
2021/07/31 06:53:36;;;;;;;3.80;1.13;;;18.10;65.80;;;;;;6214888;23;20024;-76
2021/07/31 06:56:04;;;;;;;4.47;0.93;;;18.10;65.90;;;;;;6221009;23;20220;-76
2021/07/31 06:58:31;;;;;;;1.77;0.70;;;18.20;65.10;;;;;;6214931;23;20091;-76
2021/07/31 07:00:59;;;;;;;7.70;0.80;;;18.30;65.10;;;;;;6207953;23;20025;-76
2021/07/31 07:03:26;;;;;;;4.07;1.05;;;18.30;65.20;;;;;;6212908;23;20028;-76
2021/07/31 07:05:53;;;;;;;4.93;0.70;;;18.40;64.40;;;;;;6215448;23;20023;-75
2021/07/31 07:08:22;;;;;;;2.17;0.88;;;18.40;63.80;;;;;;6211824;23;20026;-76
2021/07/31 07:10:50;;;;;;;2.03;0.98;;;18.40;64.10;;;;;;6215894;23;20339;-76
2021/07/31 07:13:18;;;;;;;2.25;0.73;;;18.50;63.60;;;;;;6214463;23;20025;-76
2021/07/31 07:15:45;;;;;;;3.25;0.80;;;18.60;63.70;;;;;;6211628;23;20087;-75
2021/07/31 07:18:12;;;;;;;2.72;1.20;;;18.70;61.90;;;;;;6218100;23;20174;-76
2021/07/31 07:20:39;;;;;;;2.42;0.60;;;18.60;61.50;;;;;;6219055;23;20305;-74
2021/07/31 07:23:06;;;;;;;2.30;0.80;;;18.60;62.60;;;;;;6217145;23;20009;-75
2021/07/31 07:25:34;;;;;;;3.60;0.80;;;18.60;61.90;;;;;;6213727;23;20316;-75
2021/07/31 07:28:09;;;;;;;2.45;1.00;;;18.60;61.60;;;;;;6211868;23;20124;-75
2021/07/31 07:30:46;;;;;;;2.33;0.60;;;18.60;62.10;;;;;;6219929;23;20021;-75
2021/07/31 07:33:13;;;;;;;2.92;0.90;;;18.60;61.40;;;;;;6216924;23;20312;-75
2021/07/31 07:35:40;;;;;;;4.22;0.80;;;18.70;62.20;;;;;;6215536;23;20035;-76
2021/07/31 07:38:07;;;;;;;1.75;0.77;;;18.80;62.50;;;;;;6218684;23;20228;-76
2021/07/31 07:40:35;;;;;;;2.53;0.82;;;18.90;61.40;;;;;;6217819;23;20217;-76
2021/07/31 07:43:04;;;;;;;2.53;0.90;;;18.90;61.00;;;;;;6215062;23;20312;-76
2021/07/31 07:45:31;;;;;;;3.35;1.10;;;19.00;61.60;;;;;;6219356;23;20224;-75
2021/07/31 07:47:58;;;;;;;2.60;0.98;;;18.90;60.60;;;;;;6217884;23;20024;-76
2021/07/31 07:50:25;;;;;;;2.08;1.08;;;18.90;60.90;;;;;;6215140;23;20100;-75
2021/07/31 07:52:53;;;;;;;3.25;0.90;;;19.10;60.50;;;;;;6215669;23;20017;-76
2021/07/31 07:55:21;;;;;;;2.83;0.70;;;19.10;60.30;;;;;;6218869;23;20264;-75
2021/07/31 07:57:48;;;;;;;1.80;0.57;;;19.10;59.60;;;;;;6217081;23;20017;-76
2021/07/31 08:00:17;;;;;;;3.55;0.80;;;19.20;59.70;;;;;;6209439;23;20016;-75
2021/07/31 08:02:44;;;;;;;3.22;0.60;;;19.20;60.40;;;;;;6217856;23;20024;-75
2021/07/31 08:05:13;;;;;;;6.43;1.92;;;19.40;60.00;;;;;;6215672;23;20031;-75
2021/07/31 08:07:43;;;;;;;2.38;0.68;;;19.30;59.30;;;;;;6217160;23;20023;-75
2021/07/31 08:10:11;;;;;;;2.42;0.90;;;19.60;59.30;;;;;;6215459;23;20212;-75
2021/07/31 08:12:39;;;;;;;2.17;0.70;;;19.50;59.00;;;;;;6211012;23;20356;-76
2021/07/31 08:15:06;;;;;;;3.88;0.90;;;19.50;59.10;;;;;;6215785;23;20347;-75
2021/07/31 08:17:35;;;;;;;1.85;0.80;;;19.60;58.90;;;;;;6213810;23;20028;-74
2021/07/31 08:20:03;;;;;;;3.10;0.80;;;19.60;58.80;;;;;;6213775;23;20027;-75
2021/07/31 08:22:31;;;;;;;4.95;0.77;;;19.60;59.20;;;;;;6212955;23;20327;-75
2021/07/31 08:24:58;;;;;;;3.13;0.82;;;19.70;57.70;;;;;;6214213;23;20028;-75
2021/07/31 08:27:25;;;;;;;4.15;0.90;;;19.70;58.40;;;;;;6214300;23;20024;-75
2021/07/31 08:29:52;;;;;;;1.63;0.90;;;19.80;58.00;;;;;;6215244;23;20008;-77
2021/07/31 08:32:20;;;;;;;5.97;0.80;;;20.00;58.40;;;;;;6211527;23;20029;-75
2021/07/31 08:34:50;;;;;;;2.50;0.85;;;20.10;56.60;;;;;;6218973;23;20035;-75
2021/07/31 08:37:17;;;;;;;;;;;20.10;56.80;;;;;;6220840;23;20024;-76
2021/07/31 08:39:44;;;;;;;1.48;0.77;;;19.90;56.60;;;;;;6222025;23;19927;-75
2021/07/31 08:42:12;;;;;;;2.60;0.90;;;20.00;57.00;;;;;;6220423;23;20020;-75
2021/07/31 08:44:40;;;;;;;5.95;0.90;;;20.10;57.10;;;;;;6220659;23;20317;-75
2021/07/31 08:47:09;;;;;;;3.13;0.88;;;20.30;56.40;;;;;;6219244;23;20009;-76
2021/07/31 08:49:38;;;;;;;7.97;0.88;;;20.50;56.00;;;;;;6220027;23;20024;-75
2021/07/31 08:52:08;;;;;;;2.90;0.80;;;20.60;55.40;;;;;;6219133;23;20028;-75
2021/07/31 08:54:39;;;;;;;3.17;0.75;;;20.80;55.30;;;;;;6221085;23;20024;-75
2021/07/31 08:57:07;;;;;;;1.90;0.60;;;20.80;55.10;;;;;;6218659;23;20051;-75
2021/07/31 08:59:34;;;;;;;3.63;0.88;;;20.90;54.20;;;;;;6220361;23;20080;-75
2021/07/31 09:02:02;;;;;;;2.63;0.88;;;20.80;54.50;;;;;;6213751;23;20055;-75
2021/07/31 09:04:30;;;;;;;3.25;0.73;;;21.10;54.60;;;;;;6217269;23;20024;-75
2021/07/31 09:06:57;;;;;;;2.47;0.73;;;21.00;53.90;;;;;;6215975;23;20012;-76
2021/07/31 09:09:27;;;;;;;2.80;0.60;;;21.10;54.90;;;;;;6219971;23;20028;-75
2021/07/31 09:11:59;;;;;;;3.20;0.90;;;21.30;53.10;;;;;;6218381;23;20033;-77
2021/07/31 09:14:27;;;;;;;2.30;0.60;;;21.20;53.50;;;;;;6220126;23;20023;-75
2021/07/31 09:16:54;;;;;;;5.07;0.70;;;21.20;53.30;;;;;;6219957;23;20012;-76
2021/07/31 09:19:22;;;;;;;1.80;0.65;;;21.30;52.60;;;;;;6220066;23;20024;-76
2021/07/31 09:21:51;;;;;;;2.25;0.88;;;21.20;53.60;;;;;;6219149;23;20047;-75
2021/07/31 09:24:20;;;;;;;2.80;0.63;;;21.50;53.60;;;;;;6219004;23;20220;-76
2021/07/31 09:26:50;;;;;;;1.70;0.75;;;21.50;52.10;;;;;;6218081;23;20296;-76
2021/07/31 09:29:20;;;;;;;1.77;0.75;;;21.40;52.10;;;;;;6215986;23;20024;-75
2021/07/31 09:31:54;;;;;;;1.55;0.73;;;21.40;52.70;;;;;;6218303;23;20028;-76
2021/07/31 09:34:27;;;;;;;2.55;1.00;;;21.60;52.30;;;;;;6217966;23;20031;-76
2021/07/31 09:37:06;;;;;;;2.28;0.88;;;21.70;52.50;;;;;;6218783;23;20106;-75
2021/07/31 09:40:02;;;;;;;2.20;0.93;;;21.70;52.30;;;;;;6217575;23;20025;-75
2021/07/31 09:42:36;;;;;;;5.18;1.05;;;22.00;51.20;;;;;;6215779;23;20099;-74
2021/07/31 09:45:06;;;;;;;6.00;1.02;;;21.60;50.90;;;;;;6218660;23;20039;-74
2021/07/31 09:47:34;;;;;;;2.20;0.70;;;21.80;51.30;;;;;;6215938;23;20223;-75
2021/07/31 09:50:01;;;;;;;1.00;0.45;;;21.90;51.60;;;;;;6218540;23;20055;-75
2021/07/31 09:52:29;;;;;;;3.10;1.00;;;22.10;50.50;;;;;;6219976;23;20028;-75
2021/07/31 09:54:58;;;;;;;2.28;0.70;;;22.20;50.00;;;;;;6219711;23;20070;-75
2021/07/31 09:57:27;;;;;;;1.42;0.65;;;22.10;49.60;;;;;;6216593;23;20017;-75
2021/07/31 09:59:59;;;;;;;4.00;0.98;;;22.10;50.00;;;;;;6217993;23;20076;-75
2021/07/31 10:02:27;;;;;;;1.73;0.82;;;22.20;49.80;;;;;;6213744;23;20028;-74
2021/07/31 10:04:55;;;;;;;0.70;0.52;;;22.50;49.60;;;;;;6218918;23;20013;-75
2021/07/31 10:07:22;;;;;;;1.65;0.60;;;22.80;48.40;;;;;;6212831;23;20028;-75
2021/07/31 10:09:52;;;;;;;4.22;1.52;;;23.00;47.20;;;;;;6216713;23;20273;-75
2021/07/31 10:12:23;;;;;;;;;;;22.80;47.70;;;;;;6222245;23;20027;-74
2021/07/31 10:14:51;;;;;;;2.10;0.73;;;23.10;47.20;;;;;;6218286;23;19927;-75
2021/07/31 10:17:28;;;;;;;3.20;1.00;;;23.20;47.80;;;;;;6219513;23;20020;-75
2021/07/31 10:19:55;;;;;;;5.30;1.10;;;22.90;47.70;;;;;;6221398;23;20031;-75
2021/07/31 10:22:41;;;;;;;2.17;1.05;;;22.90;47.90;;;;;;6219793;23;20071;-75
2021/07/31 10:25:10;;;;;;;4.65;0.80;;;23.60;46.70;;;;;;6219168;23;20035;-76
2021/07/31 10:27:38;;;;;;;1.67;1.00;;;23.40;46.70;;;;;;6219619;23;20016;-75
2021/07/31 10:30:23;;;;;;;2.72;0.70;;;23.60;47.10;;;;;;6221453;23;20110;-75
2021/07/31 10:32:52;;;;;;;2.83;1.08;;;25.10;44.10;;;;;;6223141;23;20079;-76
2021/07/31 10:35:36;;;;;;;2.08;0.73;;;27.20;41.40;;;;;;6220903;23;20029;-76
2021/07/31 10:38:06;;;;;;;3.63;0.82;;;25.10;43.10;;;;;;6220573;23;20024;-75
2021/07/31 10:40:43;;;;;;;5.00;1.17;;;24.80;43.20;;;;;;6221007;23;20084;-75
2021/07/31 10:43:12;;;;;;;3.50;0.90;;;24.50;43.80;;;;;;6220673;23;20066;-75
2021/07/31 10:45:40;;;;;;;2.20;1.00;;;24.60;44.30;;;;;;6215569;23;20070;-75
2021/07/31 10:48:30;;;;;;;3.88;0.90;;;25.80;41.60;;;;;;6222364;23;20059;-75
2021/07/31 10:51:01;;;;;;;1.25;0.60;;;24.60;43.40;;;;;;6222968;23;20016;-75
2021/07/31 10:53:50;;;;;;;2.78;0.80;;;24.20;44.60;;;;;;6217330;23;20079;-75
2021/07/31 10:56:17;;;;;;;3.75;0.90;;;24.30;43.70;;;;;;6219112;23;20075;-76
2021/07/31 10:59:19;;;;;;;1.95;0.82;;;24.80;42.70;;;;;;6219575;23;20027;-76
2021/07/31 11:01:47;;;;;;;3.05;0.90;;;24.00;43.50;;;;;;6209644;23;20040;-76
2021/07/31 11:04:51;;;;;;;4.53;1.00;;;25.30;41.80;;;;;;6218512;23;20176;-76
2021/07/31 11:07:25;;;;;;;4.35;1.00;;;24.80;43.00;;;;;;6221544;23;20043;-76
2021/07/31 11:10:28;;;;;;;1.73;0.47;;;25.80;40.50;;;;;;6222406;23;20027;-75
2021/07/31 11:12:55;;;;;;;2.05;0.73;;;25.40;41.50;;;;;;6221208;23;20047;-75
2021/07/31 11:15:25;;;;;;;1.70;0.65;;;25.10;41.50;;;;;;6219190;23;20016;-76
2021/07/31 11:18:03;;;;;;;4.55;1.02;;;25.00;42.60;;;;;;6222063;23;20040;-75
2021/07/31 11:20:33;;;;;;;2.35;0.90;;;27.30;38.80;;;;;;6222808;23;20063;-76
2021/07/31 11:23:09;;;;;;;1.73;0.85;;;26.20;40.10;;;;;;6221848;23;20024;-75
2021/07/31 11:25:37;;;;;;;2.92;0.90;;;25.80;40.90;;;;;;6222823;23;20326;-75
2021/07/31 11:28:10;;;;;;;1.70;0.80;;;28.10;37.80;;;;;;6222423;23;20024;-75
2021/07/31 11:30:45;;;;;;;1.85;0.85;;;28.30;36.00;;;;;;6221874;23;20092;-76
2021/07/31 11:33:23;;;;;;;7.15;1.60;;;29.80;34.80;;;;;;6219209;23;20335;-75
2021/07/31 11:35:56;;;;;;;1.17;0.65;;;29.60;34.00;;;;;;6222152;23;20024;-75
2021/07/31 11:38:40;;;;;;;3.97;0.90;;;29.90;32.50;;;;;;6224208;23;20024;-76
2021/07/31 11:41:12;;;;;;;2.17;1.20;;;27.20;36.30;;;;;;6223682;23;20013;-75
2021/07/31 11:43:46;;;;;;;1.88;0.80;;;26.70;37.70;;;;;;6222661;23;20023;-75
2021/07/31 11:46:29;;;;;;;5.10;0.85;;;27.90;35.40;;;;;;6220430;23;20312;-75
2021/07/31 11:48:57;;;;;;;4.90;0.90;;;28.90;33.20;;;;;;6219150;23;20300;-74
2021/07/31 11:51:25;;;;;;;5.00;0.82;;;29.50;32.00;;;;;;6217973;23;20032;-75
2021/07/31 11:53:54;;;;;;;1.55;0.65;;;29.50;32.40;;;;;;6220789;23;20021;-75
2021/07/31 11:56:23;;;;;;;1.13;0.70;;;28.20;33.80;;;;;;6222286;23;20032;-75
2021/07/31 11:58:53;;;;;;;4.78;1.00;;;26.40;36.90;;;;;;6217751;23;20025;-74
2021/07/31 12:01:21;;;;;;;1.48;0.77;;;27.60;35.80;;;;;;6216504;23;20312;-75
2021/07/31 12:03:50;;;;;;;2.22;0.80;;;27.60;35.90;;;;;;6219707;23;20085;-75
2021/07/31 12:06:40;;;;;;;;;;;29.70;31.80;;;;;;6222202;23;20024;-75
2021/07/31 12:09:19;;;;;;;;;;;29.70;32.10;;;;;;6219838;23;19986;-75
2021/07/31 12:11:48;;;;;;;2.17;0.73;;;29.50;32.70;;;;;;6219278;23;19963;-74
2021/07/31 12:14:30;;;;;;;2.95;0.60;;;31.90;30.20;;;;;;6218926;23;20163;-76
2021/07/31 12:17:23;;;;;;;3.85;1.00;;;29.80;31.90;;;;;;6217542;23;20040;-75
2021/07/31 12:19:53;;;;;;;3.88;0.73;;;28.10;34.30;;;;;;6220482;23;20017;-75
2021/07/31 12:22:21;;;;;;;;;;;28.10;34.90;;;;;;6217060;23;20074;-75
2021/07/31 12:25:11;;;;;;;1.85;0.80;;;27.50;35.80;;;;;;6210929;23;19943;-74
2021/07/31 12:27:57;;;;;;;4.95;0.90;;;25.90;38.90;;;;;;6220190;23;20020;-76
2021/07/31 12:30:29;;;;;;;2.35;0.73;;;25.80;39.30;;;;;;6163235;23;20029;-75
2021/07/31 12:32:58;;;;;;;3.47;0.75;;;25.90;38.90;;;;;;6187019;23;20017;-73
2021/07/31 12:35:37;;;;;;;2.00;1.30;;;25.30;39.40;;;;;;6190235;23;20108;-73
2021/07/31 12:38:07;;;;;;;4.28;0.90;;;26.80;38.10;;;;;;6192461;23;20052;-75
2021/07/31 12:40:35;;;;;;;;;;;28.90;33.70;;;;;;6189622;23;20048;-74
2021/07/31 12:43:03;;;;;;;4.10;1.13;;;28.20;34.60;;;;;;6162400;23;19920;-74
2021/07/31 12:45:32;;;;;;;;;;;28.40;35.00;;;;;;6188919;23;20073;-74
2021/07/31 12:47:59;;;;;;;4.03;1.00;;;27.90;34.80;;;;;;6190983;23;19919;-75
2021/07/31 12:50:26;;;;;;;2.70;1.00;;;26.90;36.40;;;;;;6191133;23;20111;-75
2021/07/31 12:52:54;;;;;;;3.08;0.80;;;26.60;37.10;;;;;;6187689;23;20369;-78
2021/07/31 12:55:23;;;;;;;2.78;0.95;;;26.90;37.40;;;;;;6190812;23;20016;-77
2021/07/31 12:57:52;;;;;;;2.90;1.00;;;30.00;33.00;;;;;;6188006;23;20380;-76
2021/07/31 13:00:20;;;;;;;2.08;0.80;;;30.40;30.90;;;;;;6184167;23;20067;-77
2021/07/31 13:02:48;;;;;;;3.97;0.75;;;29.50;32.90;;;;;;6187701;23;20324;-77
2021/07/31 13:05:16;;;;;;;2.33;0.82;;;27.70;34.60;;;;;;6157095;23;20040;-77